sensor_id;sensor_type;location;lat;lon;timestamp;P1;durP1;ratioP1;P2;durP2;ratioP2
45128;SDS011;35512;56.312;101.728;2023-02-24T00:02:13;0.70;;;0.70;;
45128;SDS011;35512;56.312;101.728;2023-02-24T00:04:44;0.80;;;0.80;;
45128;SDS011;35512;56.312;101.728;2023-02-24T00:07:18;0.70;;;0.70;;
45128;SDS011;35512;56.312;101.728;2023-02-24T00:09:47;0.80;;;0.80;;
45128;SDS011;35512;56.312;101.728;2023-02-24T00:12:16;0.80;;;0.80;;
45128;SDS011;35512;56.312;101.728;2023-02-24T00:14:47;0.80;;;0.80;;
45128;SDS011;35512;56.312;101.728;2023-02-24T00:17:16;0.80;;;0.80;;
45128;SDS011;35512;56.312;101.728;2023-02-24T00:19:45;0.80;;;0.80;;
45128;SDS011;35512;56.312;101.728;2023-02-24T00:22:14;0.80;;;0.80;;
45128;SDS011;35512;56.312;101.728;2023-02-24T00:24:43;0.80;;;0.80;;
45128;SDS011;35512;56.312;101.728;2023-02-24T00:27:12;0.80;;;0.80;;
45128;SDS011;35512;56.312;101.728;2023-02-24T00:29:43;0.80;;;0.80;;
45128;SDS011;35512;56.312;101.728;2023-02-24T00:32:12;0.80;;;0.80;;
45128;SDS011;35512;56.312;101.728;2023-02-24T00:34:42;0.70;;;0.70;;
45128;SDS011;35512;56.312;101.728;2023-02-24T00:37:11;0.80;;;0.80;;
45128;SDS011;35512;56.312;101.728;2023-02-24T00:39:44;0.70;;;0.70;;
45128;SDS011;35512;56.312;101.728;2023-02-24T00:42:13;0.80;;;0.80;;
45128;SDS011;35512;56.312;101.728;2023-02-24T00:44:45;0.80;;;0.80;;
45128;SDS011;35512;56.312;101.728;2023-02-24T00:47:15;0.80;;;0.80;;
45128;SDS011;35512;56.312;101.728;2023-02-24T00:49:44;0.80;;;0.80;;
45128;SDS011;35512;56.312;101.728;2023-02-24T00:52:15;0.80;;;0.80;;
45128;SDS011;35512;56.312;101.728;2023-02-24T00:54:47;0.80;;;0.80;;
45128;SDS011;35512;56.312;101.728;2023-02-24T00:57:17;0.80;;;0.80;;
45128;SDS011;35512;56.312;101.728;2023-02-24T00:59:49;0.80;;;0.80;;
45128;SDS011;35512;56.312;101.728;2023-02-24T01:02:21;0.70;;;0.70;;
45128;SDS011;35512;56.312;101.728;2023-02-24T01:04:52;0.80;;;0.80;;
45128;SDS011;35512;56.312;101.728;2023-02-24T01:07:21;0.70;;;0.70;;
45128;SDS011;35512;56.312;101.728;2023-02-24T01:09:50;0.70;;;0.70;;
45128;SDS011;35512;56.312;101.728;2023-02-24T01:12:19;0.70;;;0.70;;
45128;SDS011;35512;56.312;101.728;2023-02-24T01:15:17;0.70;;;0.70;;
45128;SDS011;35512;56.312;101.728;2023-02-24T01:17:48;0.70;;;0.70;;
45128;SDS011;35512;56.312;101.728;2023-02-24T01:20:17;0.70;;;0.70;;
45128;SDS011;35512;56.312;101.728;2023-02-24T01:22:48;0.60;;;0.60;;
45128;SDS011;35512;56.312;101.728;2023-02-24T01:25:18;0.60;;;0.60;;
45128;SDS011;35512;56.312;101.728;2023-02-24T01:27:50;0.60;;;0.60;;
45128;SDS011;35512;56.312;101.728;2023-02-24T01:30:20;0.60;;;0.60;;
45128;SDS011;35512;56.312;101.728;2023-02-24T01:32:50;0.60;;;0.60;;
45128;SDS011;35512;56.312;101.728;2023-02-24T01:35:19;0.60;;;0.60;;
45128;SDS011;35512;56.312;101.728;2023-02-24T01:37:48;0.60;;;0.60;;
45128;SDS011;35512;56.312;101.728;2023-02-24T01:40:17;0.52;;;0.52;;
45128;SDS011;35512;56.312;101.728;2023-02-24T01:42:48;0.50;;;0.50;;
45128;SDS011;35512;56.312;101.728;2023-02-24T01:45:21;0.50;;;0.50;;
45128;SDS011;35512;56.312;101.728;2023-02-24T01:47:56;0.50;;;0.50;;
45128;SDS011;35512;56.312;101.728;2023-02-24T01:50:30;0.50;;;0.50;;
45128;SDS011;35512;56.312;101.728;2023-02-24T01:53:03;0.50;;;0.50;;
45128;SDS011;35512;56.312;101.728;2023-02-24T01:55:44;0.50;;;0.50;;
45128;SDS011;35512;56.312;101.728;2023-02-24T01:58:26;0.50;;;0.50;;
45128;SDS011;35512;56.312;101.728;2023-02-24T02:00:57;0.50;;;0.50;;
45128;SDS011;35512;56.312;101.728;2023-02-24T02:03:34;0.57;;;0.57;;
45128;SDS011;35512;56.312;101.728;2023-02-24T02:06:11;0.50;;;0.50;;
45128;SDS011;35512;56.312;101.728;2023-02-24T02:08:41;0.52;;;0.52;;
45128;SDS011;35512;56.312;101.728;2023-02-24T02:11:12;0.50;;;0.50;;
45128;SDS011;35512;56.312;101.728;2023-02-24T02:13:48;0.50;;;0.50;;
45128;SDS011;35512;56.312;101.728;2023-02-24T02:16:22;0.50;;;0.50;;
45128;SDS011;35512;56.312;101.728;2023-02-24T02:20:10;0.50;;;0.50;;
45128;SDS011;35512;56.312;101.728;2023-02-24T02:38:54;0.50;;;0.50;;
45128;SDS011;35512;56.312;101.728;2023-02-24T02:41:48;0.50;;;0.50;;
45128;SDS011;35512;56.312;101.728;2023-02-24T02:44:36;0.50;;;0.50;;
45128;SDS011;35512;56.312;101.728;2023-02-24T02:47:21;0.50;;;0.50;;
45128;SDS011;35512;56.312;101.728;2023-02-24T02:50:06;0.50;;;0.50;;
45128;SDS011;35512;56.312;101.728;2023-02-24T02:52:42;0.50;;;0.50;;
45128;SDS011;35512;56.312;101.728;2023-02-24T02:55:45;0.50;;;0.50;;
45128;SDS011;35512;56.312;101.728;2023-02-24T02:58:41;0.50;;;0.50;;
45128;SDS011;35512;56.312;101.728;2023-02-24T03:01:18;0.50;;;0.50;;
45128;SDS011;35512;56.312;101.728;2023-02-24T03:03:56;0.50;;;0.50;;
45128;SDS011;35512;56.312;101.728;2023-02-24T03:06:55;0.50;;;0.50;;
45128;SDS011;35512;56.312;101.728;2023-02-24T03:09:25;0.50;;;0.50;;
45128;SDS011;35512;56.312;101.728;2023-02-24T03:12:03;0.50;;;0.50;;
45128;SDS011;35512;56.312;101.728;2023-02-24T03:14:40;0.50;;;0.50;;
45128;SDS011;35512;56.312;101.728;2023-02-24T03:17:19;0.50;;;0.50;;
45128;SDS011;35512;56.312;101.728;2023-02-24T03:20:00;0.50;;;0.50;;
45128;SDS011;35512;56.312;101.728;2023-02-24T03:23:02;0.50;;;0.50;;
45128;SDS011;35512;56.312;101.728;2023-02-24T03:25:39;0.50;;;0.50;;
45128;SDS011;35512;56.312;101.728;2023-02-24T03:28:20;0.50;;;0.50;;
45128;SDS011;35512;56.312;101.728;2023-02-24T03:31:05;0.50;;;0.50;;
45128;SDS011;35512;56.312;101.728;2023-02-24T03:33:50;0.50;;;0.50;;
45128;SDS011;35512;56.312;101.728;2023-02-24T03:36:31;0.50;;;0.50;;
45128;SDS011;35512;56.312;101.728;2023-02-24T03:39:00;0.45;;;0.45;;
45128;SDS011;35512;56.312;101.728;2023-02-24T03:41:41;0.50;;;0.50;;
45128;SDS011;35512;56.312;101.728;2023-02-24T03:44:23;0.50;;;0.50;;
45128;SDS011;35512;56.312;101.728;2023-02-24T03:46:52;0.50;;;0.50;;
45128;SDS011;35512;56.312;101.728;2023-02-24T03:49:23;0.50;;;0.50;;
45128;SDS011;35512;56.312;101.728;2023-02-24T04:06:42;0.50;;;0.50;;
45128;SDS011;35512;56.312;101.728;2023-02-24T04:12:12;0.50;;;0.50;;
45128;SDS011;35512;56.312;101.728;2023-02-24T04:15:12;0.50;;;0.50;;
45128;SDS011;35512;56.312;101.728;2023-02-24T04:17:55;0.50;;;0.50;;
45128;SDS011;35512;56.312;101.728;2023-02-24T04:20:33;0.50;;;0.50;;
45128;SDS011;35512;56.312;101.728;2023-02-24T04:23:05;1.30;;;1.30;;
45128;SDS011;35512;56.312;101.728;2023-02-24T04:25:39;0.50;;;0.50;;
45128;SDS011;35512;56.312;101.728;2023-02-24T04:28:12;0.50;;;0.50;;
45128;SDS011;35512;56.312;101.728;2023-02-24T04:30:46;0.50;;;0.50;;
45128;SDS011;35512;56.312;101.728;2023-02-24T04:33:19;0.50;;;0.50;;
45128;SDS011;35512;56.312;101.728;2023-02-24T04:35:50;0.47;;;0.47;;
45128;SDS011;35512;56.312;101.728;2023-02-24T04:38:21;0.50;;;0.50;;
45128;SDS011;35512;56.312;101.728;2023-02-24T04:40:51;0.40;;;0.40;;
45128;SDS011;35512;56.312;101.728;2023-02-24T04:43:19;0.50;;;0.50;;
45128;SDS011;35512;56.312;101.728;2023-02-24T04:45:48;0.43;;;0.43;;
45128;SDS011;35512;56.312;101.728;2023-02-24T04:48:18;0.50;;;0.50;;
45128;SDS011;35512;56.312;101.728;2023-02-24T04:50:47;0.50;;;0.50;;
45128;SDS011;35512;56.312;101.728;2023-02-24T04:53:22;0.50;;;0.50;;
45128;SDS011;35512;56.312;101.728;2023-02-24T04:55:54;0.50;;;0.50;;
45128;SDS011;35512;56.312;101.728;2023-02-24T04:58:24;0.50;;;0.50;;
45128;SDS011;35512;56.312;101.728;2023-02-24T05:00:55;0.50;;;0.50;;
45128;SDS011;35512;56.312;101.728;2023-02-24T05:03:25;0.50;;;0.50;;
45128;SDS011;35512;56.312;101.728;2023-02-24T05:05:56;0.50;;;0.50;;
45128;SDS011;35512;56.312;101.728;2023-02-24T05:08:29;0.50;;;0.50;;
45128;SDS011;35512;56.312;101.728;2023-02-24T05:10:59;0.50;;;0.50;;
45128;SDS011;35512;56.312;101.728;2023-02-24T05:13:31;0.55;;;0.55;;
45128;SDS011;35512;56.312;101.728;2023-02-24T05:16:07;0.43;;;0.43;;
45128;SDS011;35512;56.312;101.728;2023-02-24T05:18:36;0.50;;;0.50;;
45128;SDS011;35512;56.312;101.728;2023-02-24T05:21:06;0.50;;;0.50;;
45128;SDS011;35512;56.312;101.728;2023-02-24T05:23:55;0.60;;;0.60;;
45128;SDS011;35512;56.312;101.728;2023-02-24T05:26:34;0.50;;;0.50;;
45128;SDS011;35512;56.312;101.728;2023-02-24T05:29:04;0.40;;;0.40;;
45128;SDS011;35512;56.312;101.728;2023-02-24T05:31:35;0.50;;;0.50;;
45128;SDS011;35512;56.312;101.728;2023-02-24T05:34:05;0.50;;;0.50;;
45128;SDS011;35512;56.312;101.728;2023-02-24T05:36:36;0.40;;;0.40;;
45128;SDS011;35512;56.312;101.728;2023-02-24T05:39:07;0.45;;;0.45;;
45128;SDS011;35512;56.312;101.728;2023-02-24T05:41:41;0.47;;;0.47;;
45128;SDS011;35512;56.312;101.728;2023-02-24T05:44:11;0.50;;;0.50;;
45128;SDS011;35512;56.312;101.728;2023-02-24T05:46:43;0.40;;;0.40;;
45128;SDS011;35512;56.312;101.728;2023-02-24T05:49:18;0.43;;;0.43;;
45128;SDS011;35512;56.312;101.728;2023-02-24T05:51:54;0.43;;;0.43;;
45128;SDS011;35512;56.312;101.728;2023-02-24T05:54:28;0.43;;;0.43;;
45128;SDS011;35512;56.312;101.728;2023-02-24T05:57:01;0.50;;;0.50;;
45128;SDS011;35512;56.312;101.728;2023-02-24T05:59:32;0.40;;;0.40;;
45128;SDS011;35512;56.312;101.728;2023-02-24T06:02:08;0.40;;;0.40;;
45128;SDS011;35512;56.312;101.728;2023-02-24T06:04:40;0.50;;;0.50;;
45128;SDS011;35512;56.312;101.728;2023-02-24T06:07:25;0.50;;;0.50;;
45128;SDS011;35512;56.312;101.728;2023-02-24T06:09:56;0.50;;;0.50;;
45128;SDS011;35512;56.312;101.728;2023-02-24T06:12:28;0.43;;;0.43;;
45128;SDS011;35512;56.312;101.728;2023-02-24T06:15:00;0.50;;;0.50;;
45128;SDS011;35512;56.312;101.728;2023-02-24T06:17:34;0.50;;;0.50;;
45128;SDS011;35512;56.312;101.728;2023-02-24T06:20:03;0.40;;;0.40;;
45128;SDS011;35512;56.312;101.728;2023-02-24T06:22:42;0.50;;;0.50;;
45128;SDS011;35512;56.312;101.728;2023-02-24T06:25:11;0.50;;;0.50;;
45128;SDS011;35512;56.312;101.728;2023-02-24T06:27:40;0.45;;;0.45;;
45128;SDS011;35512;56.312;101.728;2023-02-24T06:30:10;0.40;;;0.40;;
45128;SDS011;35512;56.312;101.728;2023-02-24T06:32:39;0.50;;;0.50;;
45128;SDS011;35512;56.312;101.728;2023-02-24T06:35:09;0.47;;;0.47;;
45128;SDS011;35512;56.312;101.728;2023-02-24T06:37:39;0.50;;;0.50;;
45128;SDS011;35512;56.312;101.728;2023-02-24T06:40:09;0.50;;;0.50;;
45128;SDS011;35512;56.312;101.728;2023-02-24T06:42:47;0.50;;;0.50;;
45128;SDS011;35512;56.312;101.728;2023-02-24T06:45:21;0.50;;;0.50;;
45128;SDS011;35512;56.312;101.728;2023-02-24T06:47:51;0.50;;;0.50;;
45128;SDS011;35512;56.312;101.728;2023-02-24T06:50:20;0.40;;;0.40;;
45128;SDS011;35512;56.312;101.728;2023-02-24T06:52:53;0.40;;;0.40;;
45128;SDS011;35512;56.312;101.728;2023-02-24T06:55:22;0.40;;;0.40;;
45128;SDS011;35512;56.312;101.728;2023-02-24T06:57:55;0.43;;;0.43;;
45128;SDS011;35512;56.312;101.728;2023-02-24T07:00:27;0.88;;;0.88;;
45128;SDS011;35512;56.312;101.728;2023-02-24T07:03:07;0.45;;;0.45;;
45128;SDS011;35512;56.312;101.728;2023-02-24T07:05:47;0.40;;;0.40;;
45128;SDS011;35512;56.312;101.728;2023-02-24T07:08:18;0.40;;;0.40;;
45128;SDS011;35512;56.312;101.728;2023-02-24T07:10:53;0.40;;;0.40;;
45128;SDS011;35512;56.312;101.728;2023-02-24T07:13:25;0.43;;;0.43;;
45128;SDS011;35512;56.312;101.728;2023-02-24T07:15:58;0.40;;;0.40;;
45128;SDS011;35512;56.312;101.728;2023-02-24T07:18:34;0.43;;;0.43;;
45128;SDS011;35512;56.312;101.728;2023-02-24T07:21:04;0.40;;;0.40;;
45128;SDS011;35512;56.312;101.728;2023-02-24T07:23:39;0.40;;;0.40;;
45128;SDS011;35512;56.312;101.728;2023-02-24T07:26:10;0.40;;;0.40;;
45128;SDS011;35512;56.312;101.728;2023-02-24T07:28:44;0.40;;;0.40;;
45128;SDS011;35512;56.312;101.728;2023-02-24T07:31:16;0.50;;;0.50;;
45128;SDS011;35512;56.312;101.728;2023-02-24T07:33:50;0.43;;;0.43;;
45128;SDS011;35512;56.312;101.728;2023-02-24T07:36:23;0.40;;;0.40;;
45128;SDS011;35512;56.312;101.728;2023-02-24T07:38:57;0.50;;;0.50;;
45128;SDS011;35512;56.312;101.728;2023-02-24T07:41:26;0.50;;;0.50;;
45128;SDS011;35512;56.312;101.728;2023-02-24T07:43:57;0.40;;;0.40;;
45128;SDS011;35512;56.312;101.728;2023-02-24T07:46:30;0.40;;;0.40;;
45128;SDS011;35512;56.312;101.728;2023-02-24T07:48:59;0.40;;;0.40;;
45128;SDS011;35512;56.312;101.728;2023-02-24T07:51:30;0.45;;;0.45;;
45128;SDS011;35512;56.312;101.728;2023-02-24T07:53:59;0.40;;;0.40;;
45128;SDS011;35512;56.312;101.728;2023-02-24T07:56:29;0.40;;;0.40;;
45128;SDS011;35512;56.312;101.728;2023-02-24T07:59:01;0.40;;;0.40;;
45128;SDS011;35512;56.312;101.728;2023-02-24T08:01:35;0.35;;;0.35;;
45128;SDS011;35512;56.312;101.728;2023-02-24T08:04:17;0.40;;;0.40;;
45128;SDS011;35512;56.312;101.728;2023-02-24T08:06:48;0.40;;;0.40;;
45128;SDS011;35512;56.312;101.728;2023-02-24T08:09:24;0.40;;;0.40;;
45128;SDS011;35512;56.312;101.728;2023-02-24T08:12:14;0.40;;;0.40;;
45128;SDS011;35512;56.312;101.728;2023-02-24T08:14:45;0.40;;;0.40;;
45128;SDS011;35512;56.312;101.728;2023-02-24T08:17:20;0.40;;;0.40;;
45128;SDS011;35512;56.312;101.728;2023-02-24T08:19:52;0.40;;;0.40;;
45128;SDS011;35512;56.312;101.728;2023-02-24T08:22:42;0.30;;;0.30;;
45128;SDS011;35512;56.312;101.728;2023-02-24T08:25:14;0.40;;;0.40;;
45128;SDS011;35512;56.312;101.728;2023-02-24T08:27:46;0.38;;;0.38;;
45128;SDS011;35512;56.312;101.728;2023-02-24T08:30:40;0.40;;;0.40;;
45128;SDS011;35512;56.312;101.728;2023-02-24T08:33:17;0.40;;;0.40;;
45128;SDS011;35512;56.312;101.728;2023-02-24T08:35:50;0.30;;;0.30;;
45128;SDS011;35512;56.312;101.728;2023-02-24T08:38:25;0.40;;;0.40;;
45128;SDS011;35512;56.312;101.728;2023-02-24T08:41:14;0.40;;;0.40;;
45128;SDS011;35512;56.312;101.728;2023-02-24T08:43:45;0.40;;;0.40;;
45128;SDS011;35512;56.312;101.728;2023-02-24T08:46:17;0.40;;;0.40;;
45128;SDS011;35512;56.312;101.728;2023-02-24T08:48:57;0.40;;;0.40;;
45128;SDS011;35512;56.312;101.728;2023-02-24T08:51:31;0.40;;;0.40;;
45128;SDS011;35512;56.312;101.728;2023-02-24T08:54:08;0.40;;;0.40;;
45128;SDS011;35512;56.312;101.728;2023-02-24T08:56:43;0.32;;;0.32;;
45128;SDS011;35512;56.312;101.728;2023-02-24T08:59:16;0.40;;;0.40;;
45128;SDS011;35512;56.312;101.728;2023-02-24T09:02:11;0.40;;;0.40;;
45128;SDS011;35512;56.312;101.728;2023-02-24T09:07:36;0.40;;;0.40;;
45128;SDS011;35512;56.312;101.728;2023-02-24T09:10:12;0.40;;;0.40;;
45128;SDS011;35512;56.312;101.728;2023-02-24T09:15:16;0.30;;;0.30;;
45128;SDS011;35512;56.312;101.728;2023-02-24T09:17:45;0.40;;;0.40;;
45128;SDS011;35512;56.312;101.728;2023-02-24T09:20:21;0.40;;;0.40;;
45128;SDS011;35512;56.312;101.728;2023-02-24T09:23:11;0.40;;;0.40;;
45128;SDS011;35512;56.312;101.728;2023-02-24T09:25:47;0.40;;;0.40;;
45128;SDS011;35512;56.312;101.728;2023-02-24T09:28:22;0.40;;;0.40;;
45128;SDS011;35512;56.312;101.728;2023-02-24T09:30:57;0.40;;;0.40;;
45128;SDS011;35512;56.312;101.728;2023-02-24T09:36:13;0.50;;;0.50;;
45128;SDS011;35512;56.312;101.728;2023-02-24T09:38:57;0.40;;;0.40;;
45128;SDS011;35512;56.312;101.728;2023-02-24T09:41:38;0.50;;;0.50;;
45128;SDS011;35512;56.312;101.728;2023-02-24T09:44:32;0.50;;;0.50;;
45128;SDS011;35512;56.312;101.728;2023-02-24T09:50:40;0.40;;;0.40;;
45128;SDS011;35512;56.312;101.728;2023-02-24T09:53:17;0.43;;;0.43;;
45128;SDS011;35512;56.312;101.728;2023-02-24T09:55:50;0.50;;;0.50;;
45128;SDS011;35512;56.312;101.728;2023-02-24T10:06:53;0.50;;;0.50;;
45128;SDS011;35512;56.312;101.728;2023-02-24T10:09:40;0.40;;;0.40;;
45128;SDS011;35512;56.312;101.728;2023-02-24T10:13:12;0.50;;;0.50;;
45128;SDS011;35512;56.312;101.728;2023-02-24T10:16:04;0.60;;;0.60;;
45128;SDS011;35512;56.312;101.728;2023-02-24T10:21:52;0.50;;;0.50;;
45128;SDS011;35512;56.312;101.728;2023-02-24T10:25:00;0.50;;;0.50;;
45128;SDS011;35512;56.312;101.728;2023-02-24T10:27:48;0.57;;;0.57;;
45128;SDS011;35512;56.312;101.728;2023-02-24T10:33:21;0.50;;;0.50;;
45128;SDS011;35512;56.312;101.728;2023-02-24T10:36:13;0.50;;;0.50;;
45128;SDS011;35512;56.312;101.728;2023-02-24T10:38:46;0.50;;;0.50;;
45128;SDS011;35512;56.312;101.728;2023-02-24T10:41:17;0.50;;;0.50;;
45128;SDS011;35512;56.312;101.728;2023-02-24T10:43:57;0.60;;;0.60;;
45128;SDS011;35512;56.312;101.728;2023-02-24T10:46:27;0.50;;;0.50;;
45128;SDS011;35512;56.312;101.728;2023-02-24T10:49:09;0.50;;;0.50;;
45128;SDS011;35512;56.312;101.728;2023-02-24T10:51:47;0.50;;;0.50;;
45128;SDS011;35512;56.312;101.728;2023-02-24T10:57:11;0.60;;;0.60;;
45128;SDS011;35512;56.312;101.728;2023-02-24T11:00:06;0.60;;;0.60;;
45128;SDS011;35512;56.312;101.728;2023-02-24T11:02:58;0.50;;;0.50;;
45128;SDS011;35512;56.312;101.728;2023-02-24T11:05:42;0.60;;;0.60;;
45128;SDS011;35512;56.312;101.728;2023-02-24T11:08:33;0.50;;;0.50;;
45128;SDS011;35512;56.312;101.728;2023-02-24T11:11:29;0.60;;;0.60;;
45128;SDS011;35512;56.312;101.728;2023-02-24T11:14:21;0.60;;;0.60;;
45128;SDS011;35512;56.312;101.728;2023-02-24T11:17:16;0.50;;;0.50;;
45128;SDS011;35512;56.312;101.728;2023-02-24T11:19:57;0.60;;;0.60;;
45128;SDS011;35512;56.312;101.728;2023-02-24T11:22:30;0.60;;;0.60;;
45128;SDS011;35512;56.312;101.728;2023-02-24T11:25:04;0.50;;;0.50;;
45128;SDS011;35512;56.312;101.728;2023-02-24T11:27:39;0.50;;;0.50;;
45128;SDS011;35512;56.312;101.728;2023-02-24T11:35:37;0.60;;;0.60;;
45128;SDS011;35512;56.312;101.728;2023-02-24T11:47:00;0.60;;;0.60;;
45128;SDS011;35512;56.312;101.728;2023-02-24T11:49:44;0.50;;;0.50;;
45128;SDS011;35512;56.312;101.728;2023-02-24T11:52:33;0.50;;;0.50;;
45128;SDS011;35512;56.312;101.728;2023-02-24T11:55:20;0.50;;;0.50;;
45128;SDS011;35512;56.312;101.728;2023-02-24T11:57:54;0.50;;;0.50;;
45128;SDS011;35512;56.312;101.728;2023-02-24T12:00:29;0.50;;;0.50;;
45128;SDS011;35512;56.312;101.728;2023-02-24T12:03:12;0.50;;;0.50;;
45128;SDS011;35512;56.312;101.728;2023-02-24T12:05:52;0.50;;;0.50;;
45128;SDS011;35512;56.312;101.728;2023-02-24T12:08:28;0.50;;;0.50;;
45128;SDS011;35512;56.312;101.728;2023-02-24T12:11:13;0.60;;;0.60;;
45128;SDS011;35512;56.312;101.728;2023-02-24T12:13:52;0.50;;;0.50;;
45128;SDS011;35512;56.312;101.728;2023-02-24T12:16:42;0.50;;;0.50;;
45128;SDS011;35512;56.312;101.728;2023-02-24T12:19:17;0.50;;;0.50;;
45128;SDS011;35512;56.312;101.728;2023-02-24T12:22:13;0.50;;;0.50;;
45128;SDS011;35512;56.312;101.728;2023-02-24T12:24:47;0.50;;;0.50;;
45128;SDS011;35512;56.312;101.728;2023-02-24T12:30:28;0.50;;;0.50;;
45128;SDS011;35512;56.312;101.728;2023-02-24T12:39:41;0.50;;;0.50;;
45128;SDS011;35512;56.312;101.728;2023-02-24T12:53:39;0.50;;;0.50;;
45128;SDS011;35512;56.312;101.728;2023-02-24T12:56:28;0.50;;;0.50;;
45128;SDS011;35512;56.312;101.728;2023-02-24T12:59:08;0.55;;;0.55;;
45128;SDS011;35512;56.312;101.728;2023-02-24T13:02:05;0.60;;;0.60;;
45128;SDS011;35512;56.312;101.728;2023-02-24T13:11:07;0.60;;;0.60;;
45128;SDS011;35512;56.312;101.728;2023-02-24T13:19:36;0.50;;;0.50;;
45128;SDS011;35512;56.312;101.728;2023-02-24T13:22:17;0.50;;;0.50;;
45128;SDS011;35512;56.312;101.728;2023-02-24T13:25:08;0.60;;;0.60;;
45128;SDS011;35512;56.312;101.728;2023-02-24T13:27:52;0.50;;;0.50;;
45128;SDS011;35512;56.312;101.728;2023-02-24T13:35:48;0.50;;;0.50;;
45128;SDS011;35512;56.312;101.728;2023-02-24T13:38:33;0.50;;;0.50;;
45128;SDS011;35512;56.312;101.728;2023-02-24T13:43:56;0.50;;;0.50;;
45128;SDS011;35512;56.312;101.728;2023-02-24T13:46:32;0.50;;;0.50;;
45128;SDS011;35512;56.312;101.728;2023-02-24T13:55:11;0.50;;;0.50;;
45128;SDS011;35512;56.312;101.728;2023-02-24T13:58:04;0.50;;;0.50;;
45128;SDS011;35512;56.312;101.728;2023-02-24T14:03:35;0.60;;;0.60;;
45128;SDS011;35512;56.312;101.728;2023-02-24T14:06:16;0.50;;;0.50;;
45128;SDS011;35512;56.312;101.728;2023-02-24T14:08:53;0.50;;;0.50;;
45128;SDS011;35512;56.312;101.728;2023-02-24T14:11:25;0.50;;;0.50;;
45128;SDS011;35512;56.312;101.728;2023-02-24T14:13:58;0.50;;;0.50;;
45128;SDS011;35512;56.312;101.728;2023-02-24T14:16:30;0.50;;;0.50;;
45128;SDS011;35512;56.312;101.728;2023-02-24T14:19:14;0.50;;;0.50;;
45128;SDS011;35512;56.312;101.728;2023-02-24T14:21:51;0.50;;;0.50;;
45128;SDS011;35512;56.312;101.728;2023-02-24T14:24:25;0.50;;;0.50;;
45128;SDS011;35512;56.312;101.728;2023-02-24T14:26:56;0.50;;;0.50;;
45128;SDS011;35512;56.312;101.728;2023-02-24T14:29:27;0.50;;;0.50;;
45128;SDS011;35512;56.312;101.728;2023-02-24T14:32:20;0.50;;;0.50;;
45128;SDS011;35512;56.312;101.728;2023-02-24T14:34:52;0.57;;;0.57;;
45128;SDS011;35512;56.312;101.728;2023-02-24T14:37:25;0.50;;;0.50;;
45128;SDS011;35512;56.312;101.728;2023-02-24T14:39:58;0.50;;;0.50;;
45128;SDS011;35512;56.312;101.728;2023-02-24T14:42:31;0.60;;;0.60;;
45128;SDS011;35512;56.312;101.728;2023-02-24T14:45:00;0.60;;;0.60;;
45128;SDS011;35512;56.312;101.728;2023-02-24T14:47:30;0.50;;;0.50;;
45128;SDS011;35512;56.312;101.728;2023-02-24T14:50:02;0.50;;;0.50;;
45128;SDS011;35512;56.312;101.728;2023-02-24T14:52:40;0.57;;;0.57;;
45128;SDS011;35512;56.312;101.728;2023-02-24T14:55:38;0.60;;;0.60;;
45128;SDS011;35512;56.312;101.728;2023-02-24T14:58:15;0.50;;;0.50;;
45128;SDS011;35512;56.312;101.728;2023-02-24T15:00:51;0.50;;;0.50;;
45128;SDS011;35512;56.312;101.728;2023-02-24T15:03:26;0.50;;;0.50;;
45128;SDS011;35512;56.312;101.728;2023-02-24T15:06:00;0.50;;;0.50;;
45128;SDS011;35512;56.312;101.728;2023-02-24T15:11:10;0.60;;;0.60;;
45128;SDS011;35512;56.312;101.728;2023-02-24T15:16:39;0.50;;;0.50;;
45128;SDS011;35512;56.312;101.728;2023-02-24T15:19:25;0.50;;;0.50;;
45128;SDS011;35512;56.312;101.728;2023-02-24T15:24:53;0.50;;;0.50;;
45128;SDS011;35512;56.312;101.728;2023-02-24T15:27:48;0.60;;;0.60;;
45128;SDS011;35512;56.312;101.728;2023-02-24T15:30:37;0.50;;;0.50;;
45128;SDS011;35512;56.312;101.728;2023-02-24T15:33:24;0.50;;;0.50;;
45128;SDS011;35512;56.312;101.728;2023-02-24T15:36:04;0.50;;;0.50;;
45128;SDS011;35512;56.312;101.728;2023-02-24T15:38:37;0.60;;;0.60;;
45128;SDS011;35512;56.312;101.728;2023-02-24T15:41:10;0.50;;;0.50;;
45128;SDS011;35512;56.312;101.728;2023-02-24T15:48:47;0.55;;;0.55;;
45128;SDS011;35512;56.312;101.728;2023-02-24T15:54:06;0.50;;;0.50;;
45128;SDS011;35512;56.312;101.728;2023-02-24T15:56:40;0.60;;;0.60;;
45128;SDS011;35512;56.312;101.728;2023-02-24T15:59:13;0.60;;;0.60;;
45128;SDS011;35512;56.312;101.728;2023-02-24T16:01:44;0.60;;;0.60;;
45128;SDS011;35512;56.312;101.728;2023-02-24T16:04:13;0.50;;;0.50;;
45128;SDS011;35512;56.312;101.728;2023-02-24T16:06:43;0.60;;;0.60;;
45128;SDS011;35512;56.312;101.728;2023-02-24T16:09:24;0.50;;;0.50;;
45128;SDS011;35512;56.312;101.728;2023-02-24T16:11:54;0.50;;;0.50;;
45128;SDS011;35512;56.312;101.728;2023-02-24T16:14:23;0.60;;;0.60;;
45128;SDS011;35512;56.312;101.728;2023-02-24T16:16:52;0.60;;;0.60;;
45128;SDS011;35512;56.312;101.728;2023-02-24T16:19:22;0.60;;;0.60;;
45128;SDS011;35512;56.312;101.728;2023-02-24T16:21:51;0.60;;;0.60;;
45128;SDS011;35512;56.312;101.728;2023-02-24T16:24:20;0.60;;;0.60;;
45128;SDS011;35512;56.312;101.728;2023-02-24T16:26:49;0.50;;;0.50;;
45128;SDS011;35512;56.312;101.728;2023-02-24T16:29:18;0.52;;;0.52;;
45128;SDS011;35512;56.312;101.728;2023-02-24T16:31:47;0.50;;;0.50;;
45128;SDS011;35512;56.312;101.728;2023-02-24T16:34:16;0.60;;;0.60;;
45128;SDS011;35512;56.312;101.728;2023-02-24T16:36:45;0.60;;;0.60;;
45128;SDS011;35512;56.312;101.728;2023-02-24T16:39:14;0.60;;;0.60;;
45128;SDS011;35512;56.312;101.728;2023-02-24T16:41:43;0.52;;;0.52;;
45128;SDS011;35512;56.312;101.728;2023-02-24T16:44:12;0.50;;;0.50;;
45128;SDS011;35512;56.312;101.728;2023-02-24T16:46:41;0.60;;;0.60;;
45128;SDS011;35512;56.312;101.728;2023-02-24T16:49:12;0.60;;;0.60;;
45128;SDS011;35512;56.312;101.728;2023-02-24T16:51:47;0.50;;;0.50;;
45128;SDS011;35512;56.312;101.728;2023-02-24T16:54:15;0.50;;;0.50;;
45128;SDS011;35512;56.312;101.728;2023-02-24T16:56:48;0.60;;;0.60;;
45128;SDS011;35512;56.312;101.728;2023-02-24T16:59:16;0.50;;;0.50;;
45128;SDS011;35512;56.312;101.728;2023-02-24T17:01:46;0.50;;;0.50;;
45128;SDS011;35512;56.312;101.728;2023-02-24T17:04:16;0.60;;;0.60;;
45128;SDS011;35512;56.312;101.728;2023-02-24T17:06:45;0.50;;;0.50;;
45128;SDS011;35512;56.312;101.728;2023-02-24T17:09:15;0.60;;;0.60;;
45128;SDS011;35512;56.312;101.728;2023-02-24T17:11:45;0.60;;;0.60;;
45128;SDS011;35512;56.312;101.728;2023-02-24T17:14:17;0.50;;;0.50;;
45128;SDS011;35512;56.312;101.728;2023-02-24T17:16:47;0.60;;;0.60;;
45128;SDS011;35512;56.312;101.728;2023-02-24T17:19:16;0.60;;;0.60;;
45128;SDS011;35512;56.312;101.728;2023-02-24T17:21:45;0.60;;;0.60;;
45128;SDS011;35512;56.312;101.728;2023-02-24T17:24:16;0.50;;;0.50;;
45128;SDS011;35512;56.312;101.728;2023-02-24T17:26:47;0.52;;;0.52;;
45128;SDS011;35512;56.312;101.728;2023-02-24T17:29:15;0.60;;;0.60;;
45128;SDS011;35512;56.312;101.728;2023-02-24T17:31:44;0.60;;;0.60;;
45128;SDS011;35512;56.312;101.728;2023-02-24T17:34:14;0.60;;;0.60;;
45128;SDS011;35512;56.312;101.728;2023-02-24T17:36:43;0.60;;;0.60;;